createdAt,value
2023-01-30T00:00:08.568Z,-0.43
2023-01-30T00:01:08.563Z,-0.35
2023-01-30T00:02:08.613Z,-0.44
2023-01-30T00:03:08.616Z,-0.35
2023-01-30T00:04:08.533Z,-0.46
2023-01-30T00:05:08.656Z,-0.43
2023-01-30T00:06:08.524Z,-0.50
2023-01-30T00:07:08.517Z,-0.49
2023-01-30T00:08:08.534Z,-0.49
2023-01-30T00:09:08.485Z,-0.56
2023-01-30T00:10:09.504Z,-0.52
2023-01-30T00:11:08.493Z,-0.43
2023-01-30T00:12:08.484Z,-0.49
2023-01-30T00:13:08.495Z,-0.53
2023-01-30T00:14:08.462Z,-0.41
2023-01-30T00:15:08.455Z,-0.49
2023-01-30T00:16:08.528Z,-0.47
2023-01-30T00:17:08.439Z,-0.41
2023-01-30T00:18:08.487Z,-0.46
2023-01-30T00:19:08.428Z,-0.49
2023-01-30T00:20:08.419Z,-0.46
2023-01-30T00:21:08.411Z,-0.43
2023-01-30T00:22:08.406Z,-0.46
2023-01-30T00:23:08.471Z,-0.44
2023-01-30T00:24:08.457Z,-0.38
2023-01-30T00:25:08.546Z,-0.43
2023-01-30T00:26:08.384Z,-0.43
2023-01-30T00:27:08.377Z,-0.38
2023-01-30T00:28:08.441Z,-0.47
2023-01-30T00:29:08.353Z,-0.39
2023-01-30T00:30:08.361Z,-0.56
2023-01-30T00:31:08.360Z,-0.49
2023-01-30T00:32:08.349Z,-0.50
2023-01-30T00:33:08.355Z,-0.57
2023-01-30T00:34:08.321Z,-0.56
2023-01-30T00:35:08.315Z,-0.46
2023-01-30T00:36:08.310Z,-0.54
2023-01-30T00:37:08.757Z,-0.59
2023-01-30T00:38:09.313Z,-0.54
2023-01-30T00:39:08.313Z,-0.50
2023-01-30T00:40:08.301Z,-0.52
2023-01-30T00:41:08.266Z,-0.56
2023-01-30T00:42:08.257Z,-0.59
2023-01-30T00:43:08.282Z,-0.62
2023-01-30T00:44:08.251Z,-0.61
2023-01-30T00:45:08.248Z,-0.65
2023-01-30T00:46:08.339Z,-0.62
2023-01-30T00:47:08.228Z,-0.56
2023-01-30T00:48:08.274Z,-0.56
2023-01-30T00:49:08.215Z,-0.56
2023-01-30T00:50:08.222Z,-0.56
2023-01-30T00:51:08.262Z,-0.62
2023-01-30T00:52:08.193Z,-0.52
2023-01-30T00:53:08.195Z,-0.50
2023-01-30T00:54:08.206Z,-0.52
2023-01-30T00:55:08.168Z,-0.57
2023-01-30T00:56:08.166Z,-0.49
2023-01-30T00:57:08.161Z,-0.50
2023-01-30T00:58:08.161Z,-0.50
2023-01-30T00:59:08.176Z,-0.56
2023-01-30T01:00:08.215Z,-0.46
2023-01-30T01:01:08.147Z,-0.38
2023-01-30T01:02:08.217Z,-0.50
2023-01-30T01:03:08.122Z,-0.50
2023-01-30T01:04:08.129Z,-0.39
2023-01-30T01:05:08.099Z,-0.49
2023-01-30T01:06:08.136Z,-0.39
2023-01-30T01:07:08.087Z,-0.49
2023-01-30T01:08:08.100Z,-0.44
2023-01-30T01:09:08.113Z,-0.41
2023-01-30T01:10:08.079Z,-0.46
2023-01-30T01:11:08.058Z,-0.44
2023-01-30T01:12:08.053Z,-0.41
2023-01-30T01:13:08.038Z,-0.46
2023-01-30T01:14:08.054Z,-0.41
2023-01-30T01:15:08.034Z,-0.34
2023-01-30T01:16:08.026Z,-0.44
2023-01-30T01:17:08.012Z,-0.46
2023-01-30T01:18:08.005Z,-0.39
2023-01-30T01:19:08.027Z,-0.43
2023-01-30T01:20:07.992Z,-0.47
2023-01-30T01:21:07.988Z,-0.39
2023-01-30T01:22:07.984Z,-0.38
2023-01-30T01:23:07.973Z,-0.44
2023-01-30T01:24:07.989Z,-0.31
2023-01-30T01:25:07.964Z,-0.29
2023-01-30T01:26:07.952Z,-0.34
2023-01-30T01:27:07.943Z,-0.35
2023-01-30T01:28:07.934Z,-0.25
2023-01-30T01:29:07.948Z,-0.35
2023-01-30T01:30:07.925Z,-0.35
2023-01-30T01:31:08.087Z,-0.36
2023-01-30T01:32:07.967Z,-0.28
2023-01-30T01:33:07.919Z,-0.31
2023-01-30T01:34:07.917Z,-0.38
2023-01-30T01:35:07.900Z,-0.32
2023-01-30T01:36:07.877Z,-0.28
2023-01-30T01:37:07.947Z,-0.28
2023-01-30T01:38:07.871Z,-0.21
2023-01-30T01:39:07.892Z,-0.25
2023-01-30T01:40:07.856Z,-0.28
2023-01-30T01:41:07.853Z,-0.20
2023-01-30T01:42:08.860Z,-0.31
2023-01-30T01:43:07.839Z,-0.21
2023-01-30T01:44:07.864Z,-0.21
2023-01-30T01:45:07.818Z,-0.26
2023-01-30T01:46:07.822Z,-0.23
2023-01-30T01:47:07.805Z,-0.17
2023-01-30T01:48:07.799Z,-0.28
2023-01-30T01:49:07.814Z,-0.20
2023-01-30T01:50:08.839Z,-0.29
2023-01-30T01:51:07.784Z,-0.23
2023-01-30T01:52:07.763Z,-0.21
2023-01-30T01:53:07.757Z,-0.25
2023-01-30T01:54:07.779Z,-0.23
2023-01-30T01:55:07.735Z,-0.20
2023-01-30T01:56:07.739Z,-0.26
2023-01-30T01:57:07.729Z,-0.21
2023-01-30T01:58:07.720Z,-0.17
2023-01-30T01:59:07.735Z,-0.31
2023-01-30T02:00:07.725Z,-0.14
2023-01-30T02:01:07.757Z,-0.03
2023-01-30T02:02:07.803Z,-0.14
2023-01-30T02:03:07.696Z,-0.14
2023-01-30T02:04:07.680Z,-0.11
2023-01-30T02:05:07.704Z,-0.07
2023-01-30T02:06:07.680Z,-0.10
2023-01-30T02:07:07.665Z,-0.11
2023-01-30T02:08:07.654Z,-0.14
2023-01-30T02:09:07.679Z,-0.03
2023-01-30T02:10:07.651Z,0.01
2023-01-30T02:11:07.624Z,0.00
2023-01-30T02:12:07.630Z,0.03
2023-01-30T02:13:07.630Z,-0.06
2023-01-30T02:14:07.602Z,-0.10
2023-01-30T02:15:07.653Z,0.00
2023-01-30T02:16:07.588Z,-0.06
2023-01-30T02:17:07.576Z,-0.07
2023-01-30T02:18:07.568Z,-0.14
2023-01-30T02:19:07.584Z,-0.07
2023-01-30T02:20:07.606Z,0.05
2023-01-30T02:21:07.545Z,0.04
2023-01-30T02:22:07.556Z,-0.02
2023-01-30T02:23:07.545Z,0.01
2023-01-30T02:24:07.531Z,0.00
2023-01-30T02:25:07.544Z,-0.03
2023-01-30T02:26:07.514Z,0.04
2023-01-30T02:27:07.507Z,0.04
2023-01-30T02:28:07.504Z,0.16
2023-01-30T02:29:07.499Z,0.18
2023-01-30T02:30:07.516Z,0.15
2023-01-30T02:31:07.537Z,0.11
2023-01-30T02:32:07.467Z,0.07
2023-01-30T02:33:07.457Z,0.15
2023-01-30T02:34:07.468Z,0.07
2023-01-30T02:35:07.473Z,0.15
2023-01-30T02:36:07.440Z,0.07
2023-01-30T02:37:07.480Z,0.15
2023-01-30T02:38:07.457Z,0.05
2023-01-30T02:39:07.412Z,0.22
2023-01-30T02:40:08.448Z,0.26
2023-01-30T02:41:07.401Z,0.28
2023-01-30T02:42:07.388Z,0.22
2023-01-30T02:43:07.427Z,0.34
2023-01-30T02:44:07.384Z,0.26
2023-01-30T02:45:07.413Z,0.32
2023-01-30T02:46:07.401Z,0.39
2023-01-30T02:47:08.386Z,0.32
2023-01-30T02:48:07.355Z,0.34
2023-01-30T02:49:07.348Z,0.37
2023-01-30T02:50:07.362Z,0.41
2023-01-30T02:51:07.445Z,0.39
2023-01-30T02:52:07.319Z,0.44
2023-01-30T02:53:07.342Z,0.34
2023-01-30T02:54:07.309Z,0.43
2023-01-30T02:55:07.320Z,0.46
2023-01-30T02:56:07.296Z,0.46
2023-01-30T02:57:07.299Z,0.47
2023-01-30T02:58:07.275Z,0.58
2023-01-30T02:59:07.269Z,0.44
2023-01-30T03:00:07.509Z,0.55
2023-01-30T03:01:07.331Z,0.58
2023-01-30T03:02:07.299Z,0.47
2023-01-30T03:03:07.262Z,0.59
2023-01-30T03:04:07.235Z,0.62
2023-01-30T03:05:07.257Z,0.56
2023-01-30T03:06:07.220Z,0.68
2023-01-30T03:07:07.211Z,0.56
2023-01-30T03:08:07.213Z,0.70
2023-01-30T03:09:07.194Z,0.59
2023-01-30T03:10:07.219Z,0.63
2023-01-30T03:11:07.179Z,0.62
2023-01-30T03:12:07.167Z,0.68
2023-01-30T03:13:07.170Z,0.77
2023-01-30T03:14:07.150Z,0.78
2023-01-30T03:15:07.174Z,0.78
2023-01-30T03:16:07.153Z,0.80
2023-01-30T03:17:07.127Z,0.77
2023-01-30T03:18:07.121Z,0.91
2023-01-30T03:19:07.133Z,0.78
2023-01-30T03:20:07.117Z,0.83
2023-01-30T03:21:07.143Z,0.87
2023-01-30T03:22:07.084Z,0.88
2023-01-30T03:23:07.089Z,0.88
2023-01-30T03:24:07.077Z,0.95
2023-01-30T03:25:07.067Z,0.87
2023-01-30T03:26:07.084Z,0.87
2023-01-30T03:27:07.052Z,0.95
2023-01-30T03:28:07.051Z,1.01
2023-01-30T03:29:07.059Z,0.81
2023-01-30T03:30:07.040Z,1.02
2023-01-30T03:31:07.227Z,0.91
2023-01-30T03:32:07.008Z,0.99
2023-01-30T03:33:07.002Z,0.98
2023-01-30T03:34:06.996Z,0.99
2023-01-30T03:35:06.986Z,1.04
2023-01-30T03:36:07.005Z,1.05
2023-01-30T03:37:06.963Z,1.08
2023-01-30T03:38:07.966Z,1.14
2023-01-30T03:39:06.960Z,1.13
2023-01-30T03:40:06.958Z,1.13
2023-01-30T03:41:06.971Z,1.13
2023-01-30T03:42:06.931Z,1.17
2023-01-30T03:43:06.929Z,1.22
2023-01-30T03:44:06.921Z,1.23
2023-01-30T03:45:06.913Z,1.26
2023-01-30T03:46:06.986Z,1.19
2023-01-30T03:47:06.907Z,1.30
2023-01-30T03:48:06.897Z,1.28
2023-01-30T03:49:06.879Z,1.28
2023-01-30T03:50:06.918Z,1.24
2023-01-30T03:51:06.897Z,1.23
2023-01-30T03:52:06.864Z,1.32
2023-01-30T03:53:06.910Z,1.32
2023-01-30T03:54:06.843Z,1.28
2023-01-30T03:55:06.858Z,1.30
2023-01-30T03:56:06.907Z,1.24
2023-01-30T03:57:06.822Z,1.32
2023-01-30T03:58:06.822Z,1.30
2023-01-30T03:59:06.809Z,1.31
2023-01-30T04:00:06.819Z,1.31
2023-01-30T04:01:06.862Z,1.34
2023-01-30T04:02:06.844Z,1.35
2023-01-30T04:03:06.777Z,1.35
2023-01-30T04:04:06.767Z,1.40
2023-01-30T04:05:06.766Z,1.37
2023-01-30T04:06:06.796Z,1.35
2023-01-30T04:07:06.744Z,1.41
2023-01-30T04:08:06.744Z,1.32
2023-01-30T04:09:06.739Z,1.30
2023-01-30T04:10:06.752Z,1.34
2023-01-30T04:11:06.745Z,1.37
2023-01-30T04:12:06.712Z,1.35
2023-01-30T04:13:06.703Z,1.41
2023-01-30T04:14:06.712Z,1.35
2023-01-30T04:15:06.691Z,1.41
2023-01-30T04:16:06.706Z,1.28
2023-01-30T04:17:06.688Z,1.35
2023-01-30T04:18:06.669Z,1.35
2023-01-30T04:19:06.659Z,1.45
2023-01-30T04:20:06.650Z,1.37
2023-01-30T04:21:06.707Z,1.38
2023-01-30T04:22:06.643Z,1.35
2023-01-30T04:23:06.639Z,1.40
2023-01-30T04:24:06.632Z,1.40
2023-01-30T04:25:06.632Z,1.41
2023-01-30T04:26:06.646Z,1.42
2023-01-30T04:27:06.598Z,1.31
2023-01-30T04:28:06.602Z,1.37
2023-01-30T04:29:06.580Z,1.45
2023-01-30T04:30:06.574Z,1.41
2023-01-30T04:31:06.633Z,1.44
2023-01-30T04:32:06.556Z,1.44
2023-01-30T04:33:06.558Z,1.42
2023-01-30T04:34:06.547Z,1.41
2023-01-30T04:35:06.585Z,1.48
2023-01-30T04:36:06.557Z,1.48
2023-01-30T04:37:06.531Z,1.50
2023-01-30T04:38:06.511Z,1.41
2023-01-30T04:39:06.512Z,1.44
2023-01-30T04:40:06.495Z,1.42
2023-01-30T04:41:06.521Z,1.38
2023-01-30T04:42:06.480Z,1.52
2023-01-30T04:43:06.473Z,1.48
2023-01-30T04:44:06.479Z,1.52
2023-01-30T04:45:06.470Z,1.49
2023-01-30T04:46:06.446Z,1.50
2023-01-30T04:47:06.471Z,1.56
2023-01-30T04:48:06.433Z,1.56
2023-01-30T04:49:06.424Z,1.55
2023-01-30T04:50:06.417Z,1.63
2023-01-30T04:51:06.444Z,1.59
2023-01-30T04:52:06.429Z,1.55
2023-01-30T04:53:06.388Z,1.59
2023-01-30T04:54:06.390Z,1.59
2023-01-30T04:55:39.176Z,1.63
2023-01-30T04:56:06.392Z,1.62
2023-01-30T04:57:06.400Z,1.58
2023-01-30T04:58:06.414Z,1.58
2023-01-30T04:59:06.364Z,1.71
2023-01-30T05:00:06.351Z,1.63
2023-01-30T05:01:06.367Z,1.76
2023-01-30T05:02:06.443Z,1.68
2023-01-30T05:03:07.383Z,1.67
2023-01-30T05:04:06.324Z,1.77
2023-01-30T05:05:06.340Z,1.70
2023-01-30T05:06:06.319Z,1.70
2023-01-30T05:07:06.314Z,1.73
2023-01-30T05:08:06.375Z,1.77
2023-01-30T05:09:06.271Z,1.78
2023-01-30T05:10:06.280Z,1.74
2023-01-30T05:11:06.266Z,1.73
2023-01-30T05:12:06.304Z,1.76
2023-01-30T05:13:06.275Z,1.74
2023-01-30T05:14:06.257Z,1.80
2023-01-30T05:15:06.249Z,1.81
2023-01-30T05:16:06.274Z,1.77
2023-01-30T05:17:06.269Z,1.77
2023-01-30T05:18:06.243Z,1.78
2023-01-30T05:19:06.204Z,1.80
2023-01-30T05:20:06.209Z,1.76
2023-01-30T05:21:06.212Z,1.74
2023-01-30T05:22:06.214Z,1.81
2023-01-30T05:23:06.282Z,1.91
2023-01-30T05:24:06.190Z,1.76
2023-01-30T05:25:06.195Z,1.85
2023-01-30T05:26:06.158Z,1.74
2023-01-30T05:27:06.259Z,1.84
2023-01-30T05:28:06.171Z,1.78
2023-01-30T05:29:06.157Z,1.77
2023-01-30T05:30:06.175Z,1.80
2023-01-30T05:31:06.157Z,1.88
2023-01-30T05:32:06.285Z,1.76
2023-01-30T05:33:06.155Z,1.78
2023-01-30T05:34:06.132Z,1.77
2023-01-30T05:35:06.112Z,1.81
2023-01-30T05:36:06.074Z,1.77
2023-01-30T05:37:06.454Z,1.84
2023-01-30T05:38:06.208Z,1.87
2023-01-30T05:39:06.124Z,1.89
2023-01-30T05:40:06.093Z,1.81
2023-01-30T05:41:06.086Z,1.84
2023-01-30T05:42:06.179Z,1.76
2023-01-30T05:43:06.028Z,1.94
2023-01-30T05:44:06.084Z,1.88
2023-01-30T05:45:06.042Z,1.88
2023-01-30T05:46:06.037Z,1.84
2023-01-30T05:47:06.072Z,1.92
2023-01-30T05:48:06.039Z,1.88
2023-01-30T05:49:05.965Z,1.89
2023-01-30T05:50:06.011Z,1.87
2023-01-30T05:51:05.964Z,1.88
2023-01-30T05:52:05.973Z,1.97
2023-01-30T05:53:05.985Z,1.92
2023-01-30T05:54:05.997Z,1.95
2023-01-30T05:55:06.013Z,1.97
2023-01-30T05:56:05.919Z,1.89
2023-01-30T05:57:05.964Z,1.91
2023-01-30T05:58:05.922Z,1.92
2023-01-30T05:59:05.897Z,1.92
2023-01-30T06:00:05.910Z,1.97
2023-01-30T06:01:05.862Z,1.94
2023-01-30T06:02:05.974Z,1.95
2023-01-30T06:03:05.897Z,1.91
2023-01-30T06:04:05.907Z,1.97
2023-01-30T06:05:05.868Z,1.95
2023-01-30T06:06:05.896Z,1.94
2023-01-30T06:07:06.187Z,2.00
2023-01-30T06:08:05.839Z,1.91
2023-01-30T06:09:05.852Z,2.04
2023-01-30T06:10:05.856Z,1.91
2023-01-30T06:11:05.859Z,1.99
2023-01-30T06:12:05.811Z,1.95
2023-01-30T06:13:05.868Z,1.99
2023-01-30T06:14:05.882Z,1.97
2023-01-30T06:15:05.777Z,1.89
2023-01-30T06:16:05.834Z,2.08
2023-01-30T06:17:05.930Z,1.95
2023-01-30T06:18:05.805Z,2.08
2023-01-30T06:19:05.790Z,2.04
2023-01-30T06:20:05.771Z,2.11
2023-01-30T06:21:05.730Z,2.10
2023-01-30T06:22:05.884Z,2.04
2023-01-30T06:23:05.716Z,2.14
2023-01-30T06:24:05.767Z,2.08
2023-01-30T06:25:05.716Z,2.11
2023-01-30T06:26:08.152Z,1.97
2023-01-30T06:27:06.731Z,2.06
2023-01-30T06:28:05.741Z,2.13
2023-01-30T06:29:05.666Z,2.17
2023-01-30T06:30:05.668Z,2.07
2023-01-30T06:31:05.819Z,2.15
2023-01-30T06:32:05.680Z,2.06
2023-01-30T06:33:05.693Z,2.10
2023-01-30T06:34:05.683Z,2.14
2023-01-30T06:35:05.650Z,2.04
2023-01-30T06:36:05.639Z,2.18
2023-01-30T06:37:05.710Z,2.18
2023-01-30T06:38:05.666Z,2.13
2023-01-30T06:39:05.639Z,2.08
2023-01-30T06:40:05.619Z,2.15
2023-01-30T06:41:05.656Z,2.13
2023-01-30T06:42:05.602Z,2.14
2023-01-30T06:43:05.601Z,2.06
2023-01-30T06:44:05.616Z,2.17
2023-01-30T06:45:05.612Z,2.10
2023-01-30T06:46:05.595Z,2.17
2023-01-30T06:47:05.626Z,2.17
2023-01-30T06:48:05.533Z,2.10
2023-01-30T06:49:05.546Z,2.14
2023-01-30T06:50:05.547Z,2.20
2023-01-30T06:51:05.521Z,2.10
2023-01-30T06:52:05.516Z,2.02
2023-01-30T06:53:05.522Z,2.04
2023-01-30T06:54:05.474Z,2.08
2023-01-30T06:55:05.527Z,2.17
2023-01-30T06:56:05.563Z,2.24
2023-01-30T06:57:05.550Z,2.10
2023-01-30T06:58:05.442Z,2.08
2023-01-30T06:59:05.505Z,2.13
2023-01-30T07:00:05.421Z,2.18
2023-01-30T07:01:05.436Z,2.10
2023-01-30T07:02:05.494Z,2.13
2023-01-30T07:03:05.433Z,2.13
2023-01-30T07:04:05.465Z,2.04
2023-01-30T07:05:05.434Z,2.10
2023-01-30T07:06:05.443Z,2.14
2023-01-30T07:07:07.021Z,2.18
2023-01-30T07:08:05.372Z,2.18
2023-01-30T07:09:05.383Z,2.04
2023-01-30T07:10:08.677Z,1.94
2023-01-30T07:11:06.366Z,2.11
2023-01-30T07:12:05.377Z,2.08
2023-01-30T07:13:05.404Z,2.14
2023-01-30T07:14:06.405Z,2.04
2023-01-30T07:15:06.316Z,2.14
2023-01-30T07:16:05.387Z,2.00
2023-01-30T07:17:05.321Z,1.94
2023-01-30T07:18:05.326Z,1.99
2023-01-30T07:19:05.319Z,2.00
2023-01-30T07:20:05.300Z,2.07
2023-01-30T07:21:05.245Z,1.92
2023-01-30T07:22:05.290Z,2.00
2023-01-30T07:23:05.355Z,1.88
2023-01-30T07:24:05.288Z,2.04
2023-01-30T07:25:05.304Z,1.95
2023-01-30T07:26:05.276Z,1.95
2023-01-30T07:27:05.248Z,1.91
2023-01-30T07:28:05.399Z,1.99
2023-01-30T07:29:05.337Z,2.08
2023-01-30T07:30:05.230Z,2.08
2023-01-30T07:31:05.220Z,2.07
2023-01-30T07:32:05.257Z,2.00
2023-01-30T07:33:05.279Z,2.08
2023-01-30T07:34:05.181Z,2.00
2023-01-30T07:35:06.080Z,2.10
2023-01-30T07:36:06.165Z,2.04
2023-01-30T07:37:05.199Z,2.06
2023-01-30T07:38:05.212Z,2.02
2023-01-30T07:39:05.150Z,2.10
2023-01-30T07:40:05.169Z,2.04
2023-01-30T07:41:05.357Z,2.04
2023-01-30T07:42:05.158Z,2.04
2023-01-30T07:43:05.415Z,2.00
2023-01-30T07:44:05.149Z,1.97
2023-01-30T07:45:05.180Z,2.07
2023-01-30T07:46:05.215Z,2.06
2023-01-30T07:47:05.142Z,1.97
2023-01-30T07:48:05.152Z,2.10
2023-01-30T07:49:05.092Z,2.00
2023-01-30T07:50:05.108Z,2.00
2023-01-30T07:51:05.056Z,2.04
2023-01-30T07:52:05.081Z,2.00
2023-01-30T07:53:05.140Z,1.95
2023-01-30T07:54:05.139Z,2.00
2023-01-30T07:55:05.014Z,2.00
2023-01-30T07:56:05.025Z,2.10
2023-01-30T07:57:05.036Z,2.08
2023-01-30T07:58:05.181Z,2.04
2023-01-30T07:59:05.012Z,2.04
2023-01-30T08:00:05.124Z,2.07
2023-01-30T08:01:05.077Z,2.15
2023-01-30T08:02:04.965Z,2.10
2023-01-30T08:03:05.082Z,2.06
2023-01-30T08:04:04.988Z,2.10
2023-01-30T08:05:06.259Z,2.11
2023-01-30T08:06:05.976Z,2.11
2023-01-30T08:07:04.939Z,2.13
2023-01-30T08:08:05.021Z,2.20
2023-01-30T08:09:04.917Z,2.17
2023-01-30T08:10:05.030Z,2.08
2023-01-30T08:11:04.918Z,2.06
2023-01-30T08:12:04.946Z,2.14
2023-01-30T08:13:05.004Z,2.17
2023-01-30T08:14:04.839Z,2.08
2023-01-30T08:15:04.914Z,2.15
2023-01-30T08:16:04.844Z,2.06
2023-01-30T08:17:04.849Z,2.15
2023-01-30T08:18:04.913Z,2.10
2023-01-30T08:19:04.834Z,2.13
2023-01-30T08:20:04.867Z,2.18
2023-01-30T08:21:04.879Z,2.18
2023-01-30T08:22:04.824Z,2.18
2023-01-30T08:23:04.900Z,2.24
2023-01-30T08:24:04.857Z,2.20
2023-01-30T08:25:04.863Z,2.13
2023-01-30T08:26:05.820Z,2.29
2023-01-30T08:27:04.848Z,2.24
2023-01-30T08:28:05.843Z,2.33
2023-01-30T08:29:04.789Z,2.35
2023-01-30T08:30:04.747Z,2.35
2023-01-30T08:31:04.875Z,2.36
2023-01-30T08:32:04.751Z,2.33
2023-01-30T08:33:04.876Z,2.38
2023-01-30T08:34:04.753Z,2.28
2023-01-30T08:35:04.731Z,2.28
2023-01-30T08:36:04.705Z,2.31
2023-01-30T08:37:04.687Z,2.26
2023-01-30T08:38:04.734Z,2.33
2023-01-30T08:39:04.705Z,2.32
2023-01-30T08:40:04.719Z,2.29
2023-01-30T08:41:04.701Z,2.50
2023-01-30T08:42:04.659Z,2.50
2023-01-30T08:43:04.676Z,2.56
2023-01-30T08:44:04.830Z,2.62
2023-01-30T08:45:04.641Z,2.56
2023-01-30T08:46:04.742Z,2.51
2023-01-30T08:47:04.655Z,2.53
2023-01-30T08:48:04.669Z,2.54
2023-01-30T08:49:04.715Z,2.53
2023-01-30T08:50:04.666Z,2.56
2023-01-30T08:51:04.625Z,2.46
2023-01-30T08:52:04.590Z,2.51
2023-01-30T08:53:04.766Z,2.49
2023-01-30T08:54:05.605Z,2.51
2023-01-30T08:55:04.677Z,2.56
2023-01-30T08:56:04.559Z,2.57
2023-01-30T08:57:04.577Z,2.61
2023-01-30T08:58:04.626Z,2.68
2023-01-30T08:59:04.564Z,2.65
2023-01-30T09:00:04.576Z,2.68
2023-01-30T09:01:04.661Z,2.71
2023-01-30T09:02:04.525Z,2.79
2023-01-30T09:03:04.528Z,2.75
2023-01-30T09:04:04.511Z,2.82
2023-01-30T09:05:04.516Z,2.90
2023-01-30T09:06:04.521Z,2.93
2023-01-30T09:07:04.530Z,3.00
2023-01-30T09:08:04.483Z,2.97
2023-01-30T09:09:04.514Z,3.05
2023-01-30T09:10:04.523Z,3.01
2023-01-30T09:11:04.570Z,3.04
2023-01-30T09:12:04.516Z,3.10
2023-01-30T09:13:04.470Z,3.07
2023-01-30T09:14:04.422Z,3.07
2023-01-30T09:15:04.443Z,3.13
2023-01-30T09:16:04.424Z,3.13
2023-01-30T09:17:04.393Z,3.07
2023-01-30T09:18:04.446Z,3.18
2023-01-30T09:19:04.419Z,3.10
2023-01-30T09:20:04.405Z,3.10
2023-01-30T09:21:04.512Z,3.03
2023-01-30T09:22:04.423Z,3.10
2023-01-30T09:23:04.376Z,2.98
2023-01-30T09:24:04.395Z,3.00
2023-01-30T09:25:05.118Z,3.13
2023-01-30T09:26:04.405Z,3.07
2023-01-30T09:27:04.374Z,3.05
2023-01-30T09:28:04.358Z,3.11
2023-01-30T09:29:04.416Z,3.21
2023-01-30T09:30:04.485Z,3.29
2023-01-30T09:31:04.500Z,3.34
2023-01-30T09:32:04.364Z,3.41
2023-01-30T09:33:04.306Z,3.41
2023-01-30T09:34:04.268Z,3.45
2023-01-30T09:35:04.276Z,3.51
2023-01-30T09:36:04.296Z,3.50
2023-01-30T09:37:05.157Z,3.47
2023-01-30T09:38:05.273Z,3.37
2023-01-30T09:39:04.239Z,3.37
2023-01-30T09:40:04.218Z,3.40
2023-01-30T09:41:04.224Z,3.42
2023-01-30T09:42:04.301Z,3.34
2023-01-30T09:43:04.219Z,3.48
2023-01-30T09:44:04.226Z,3.48
2023-01-30T09:45:04.203Z,3.45
2023-01-30T09:46:04.252Z,3.45
2023-01-30T09:47:04.204Z,3.42
2023-01-30T09:48:04.156Z,3.44
2023-01-30T09:49:04.213Z,3.53
2023-01-30T09:50:04.213Z,3.53
2023-01-30T09:51:04.187Z,3.58
2023-01-30T09:52:04.218Z,3.63
2023-01-30T09:53:04.163Z,3.62
2023-01-30T09:54:04.190Z,3.51
2023-01-30T09:55:04.188Z,3.68
2023-01-30T09:56:04.125Z,3.69
2023-01-30T09:57:04.145Z,3.62
2023-01-30T09:58:04.165Z,3.63
2023-01-30T09:59:04.132Z,3.68
2023-01-30T10:00:04.090Z,3.70
2023-01-30T10:01:04.118Z,3.76
2023-01-30T10:02:04.101Z,3.76
2023-01-30T10:03:04.119Z,3.68
2023-01-30T10:04:04.081Z,3.77
2023-01-30T10:05:04.109Z,3.81
2023-01-30T10:06:04.037Z,3.70
2023-01-30T10:07:04.137Z,3.66
2023-01-30T10:08:04.064Z,3.70
2023-01-30T10:09:04.026Z,3.77
2023-01-30T10:10:04.172Z,3.77
2023-01-30T10:11:10.000Z,3.81
2023-01-30T10:12:06.008Z,3.88
2023-01-30T10:13:03.979Z,3.80
2023-01-30T10:14:03.960Z,3.78
2023-01-30T10:15:03.996Z,3.87
2023-01-30T10:16:04.070Z,3.80
2023-01-30T10:17:04.012Z,3.92
2023-01-30T10:18:04.049Z,3.83
2023-01-30T10:19:03.982Z,3.94
2023-01-30T10:20:03.918Z,3.84
2023-01-30T10:21:03.972Z,3.92
2023-01-30T10:22:03.968Z,3.88
2023-01-30T10:23:03.925Z,3.99
2023-01-30T10:24:03.942Z,3.96
2023-01-30T10:25:04.033Z,3.94
2023-01-30T10:26:03.920Z,3.91
2023-01-30T10:27:04.924Z,3.94
2023-01-30T10:28:04.850Z,4.05
2023-01-30T10:29:08.172Z,4.06
2023-01-30T10:30:05.067Z,4.02
2023-01-30T10:31:03.900Z,3.99
2023-01-30T10:32:03.900Z,4.04
2023-01-30T10:33:03.843Z,4.02
2023-01-30T10:34:03.888Z,3.99
2023-01-30T10:35:03.823Z,4.14
2023-01-30T10:36:03.842Z,4.12
2023-01-30T10:37:03.853Z,4.13
2023-01-30T10:38:03.872Z,4.10
2023-01-30T10:39:03.847Z,4.24
2023-01-30T10:40:03.817Z,4.24
2023-01-30T10:41:03.763Z,4.22
2023-01-30T10:42:04.793Z,4.38
2023-01-30T10:43:03.736Z,4.53
2023-01-30T10:44:03.772Z,4.55
2023-01-30T10:45:03.760Z,4.60
2023-01-30T10:46:03.793Z,4.55
2023-01-30T10:47:03.808Z,4.60
2023-01-30T10:48:03.757Z,4.70
2023-01-30T10:49:03.780Z,4.67
2023-01-30T10:50:03.736Z,4.71
2023-01-30T10:51:03.676Z,4.58
2023-01-30T10:52:03.720Z,4.56
2023-01-30T10:53:03.726Z,4.34
2023-01-30T10:54:03.743Z,4.30
2023-01-30T10:55:03.743Z,4.44
2023-01-30T10:56:36.225Z,4.35
2023-01-30T10:57:03.621Z,4.48
2023-01-30T10:58:03.643Z,4.45
2023-01-30T10:59:03.616Z,4.49
2023-01-30T11:00:03.603Z,4.63
2023-01-30T11:01:03.636Z,4.75
2023-01-30T11:02:03.671Z,4.86
2023-01-30T11:03:03.673Z,4.93
2023-01-30T11:04:04.566Z,5.12
2023-01-30T11:05:03.598Z,5.30
2023-01-30T11:06:03.588Z,5.38
2023-01-30T11:07:03.551Z,5.32
2023-01-30T11:08:03.568Z,5.39
2023-01-30T11:09:03.558Z,5.51
2023-01-30T11:10:03.526Z,5.47
2023-01-30T11:11:03.518Z,5.54
2023-01-30T11:12:03.512Z,5.57
2023-01-30T11:13:03.529Z,5.57
2023-01-30T11:14:03.497Z,5.62
2023-01-30T11:15:03.495Z,5.65
2023-01-30T11:16:03.578Z,5.75
2023-01-30T11:17:03.477Z,5.65
2023-01-30T11:18:32.869Z,5.68
2023-01-30T11:19:22.364Z,5.71
2023-01-30T11:20:05.451Z,5.64
2023-01-30T11:21:03.447Z,5.76
2023-01-30T11:22:03.435Z,5.79
2023-01-30T11:23:03.459Z,5.97
2023-01-30T11:24:03.435Z,6.08
2023-01-30T11:25:03.430Z,6.11
2023-01-30T11:26:11.382Z,6.07
2023-01-30T11:27:05.409Z,6.07
2023-01-30T11:28:03.419Z,6.14
2023-01-30T11:29:03.387Z,6.31
2023-01-30T11:30:03.401Z,6.20
2023-01-30T11:31:03.364Z,6.22
2023-01-30T11:32:04.451Z,6.46
2023-01-30T11:33:03.384Z,6.60
2023-01-30T11:34:03.352Z,6.59
2023-01-30T11:35:03.349Z,6.48
2023-01-30T11:36:04.539Z,6.44
2023-01-30T11:37:04.454Z,6.14
2023-01-30T11:38:03.345Z,6.05
2023-01-30T11:39:03.303Z,6.05
2023-01-30T11:40:03.305Z,5.94
2023-01-30T11:41:03.292Z,5.97
2023-01-30T11:42:03.282Z,5.99
2023-01-30T11:43:03.296Z,5.93
2023-01-30T11:44:03.287Z,5.91
2023-01-30T11:45:16.659Z,5.87
2023-01-30T11:46:05.332Z,6.01
2023-01-30T11:47:03.244Z,5.99
2023-01-30T11:48:03.877Z,6.01
2023-01-30T11:49:09.087Z,5.94
2023-01-30T11:50:12.561Z,5.97
2023-01-30T11:51:04.226Z,6.01
2023-01-30T11:52:03.202Z,6.08
2023-01-30T11:53:03.241Z,6.07
2023-01-30T11:54:03.185Z,6.16
2023-01-30T11:55:03.214Z,6.11
2023-01-30T11:56:07.294Z,5.98
2023-01-30T11:57:05.162Z,5.87
2023-01-30T11:58:03.196Z,5.75
2023-01-30T11:59:03.158Z,5.80
2023-01-30T12:00:03.144Z,5.80
2023-01-30T12:01:03.134Z,6.01
2023-01-30T12:02:03.199Z,5.97
2023-01-30T12:03:03.254Z,6.19
2023-01-30T12:04:03.143Z,6.35
2023-01-30T12:05:03.108Z,6.41
2023-01-30T12:06:03.123Z,6.57
2023-01-30T12:07:03.087Z,6.42
2023-01-30T12:08:03.105Z,6.38
2023-01-30T12:09:03.095Z,6.36
2023-01-30T12:10:03.081Z,6.45
2023-01-30T12:11:03.067Z,6.26
2023-01-30T12:12:03.073Z,6.17
2023-01-30T12:13:03.039Z,6.07
2023-01-30T12:14:03.058Z,6.01
2023-01-30T12:15:03.040Z,5.98
2023-01-30T12:16:03.065Z,5.91
2023-01-30T12:17:03.042Z,5.99
2023-01-30T12:18:02.998Z,5.91
2023-01-30T12:19:03.025Z,5.93
2023-01-30T12:20:02.987Z,5.90
2023-01-30T12:21:02.988Z,5.90
2023-01-30T12:22:02.974Z,5.91
2023-01-30T12:23:02.982Z,5.90
2023-01-30T12:24:02.987Z,5.89
2023-01-30T12:25:02.946Z,5.84
2023-01-30T12:26:02.955Z,5.94
2023-01-30T12:27:02.934Z,5.89
2023-01-30T12:28:02.936Z,5.93
2023-01-30T12:29:02.943Z,5.93
2023-01-30T12:30:02.909Z,5.90
2023-01-30T12:31:02.916Z,5.87
2023-01-30T12:32:02.904Z,5.84
2023-01-30T12:34:02.921Z,5.82
2023-01-30T12:35:02.878Z,5.82
2023-01-30T12:36:02.871Z,5.99
2023-01-30T12:37:02.857Z,6.01
2023-01-30T12:38:02.855Z,5.94
2023-01-30T12:39:02.874Z,6.01
2023-01-30T12:40:02.834Z,5.91
2023-01-30T12:41:02.829Z,6.12
2023-01-30T12:42:02.826Z,6.16
2023-01-30T12:43:02.843Z,6.19
2023-01-30T12:44:02.836Z,6.28
2023-01-30T12:45:02.803Z,6.27
2023-01-30T12:46:03.405Z,6.26
2023-01-30T12:47:02.782Z,6.42
2023-01-30T12:48:02.765Z,6.26
2023-01-30T12:49:10.853Z,6.33
2023-01-30T12:50:04.757Z,6.31
2023-01-30T12:51:02.762Z,6.31
2023-01-30T12:52:02.742Z,6.31
2023-01-30T12:53:02.741Z,6.28
2023-01-30T12:54:02.763Z,6.24
2023-01-30T12:55:02.728Z,6.33
2023-01-30T12:56:02.736Z,6.33
2023-01-30T12:57:02.722Z,6.27
2023-01-30T12:58:02.705Z,6.19
2023-01-30T12:59:02.721Z,6.36
2023-01-30T13:00:03.690Z,6.41
2023-01-30T13:01:02.680Z,6.45
2023-01-30T13:02:02.673Z,6.41
2023-01-30T13:03:02.735Z,6.39
2023-01-30T13:04:02.688Z,6.41
2023-01-30T13:05:04.598Z,6.45
2023-01-30T13:06:03.667Z,6.36
2023-01-30T13:07:02.653Z,6.48
2023-01-30T13:08:02.624Z,6.38
2023-01-30T13:09:02.621Z,6.59
2023-01-30T13:10:02.647Z,6.57
2023-01-30T13:11:02.614Z,6.57
2023-01-30T13:12:02.599Z,6.54
2023-01-30T13:13:02.596Z,6.60
2023-01-30T13:14:02.589Z,6.64